Terminal Aerodrome Forecast
Issued by NWS

Home | Current Version | Previous Version | Text Only | Print | Product List | Glossary On
Versions: 1 2 3 4 5 6 7 8 9 10 11 12 13 14 15 16 17 18 19 20 21 22 23 24 25 26 27 28 29 30 31 32 33
000
FTUS45 KBOU 242339
TAFBJC
TAF
KBJC 242339Z 2500/2524 07008KT P6SM SCT015 BKN035
      TEMPO 2500/2502 3SM -SHSN BKN009 BKN020 OVC035
     FM250300 08006KT P6SM SCT025 BKN050
     FM250700 30006KT P6SM FEW070 SCT120
     FM251700 28014KT P6SM SCT100 SCT150=

USA.gov is the U.S. government's official web portal to all federal, state and local government web resources and services.